sensor_id;sensor_type;location;lat;lon;timestamp;P1;durP1;ratioP1;P2;durP2;ratioP2
39188;SDS011;24915;50.858;4.376;2023-07-02T00:02:24;46.55;;;19.95;;
39188;SDS011;24915;50.858;4.376;2023-07-02T00:04:50;43.15;;;19.55;;
39188;SDS011;24915;50.858;4.376;2023-07-02T00:07:16;41.33;;;20.13;;
39188;SDS011;24915;50.858;4.376;2023-07-02T00:09:42;45.88;;;20.33;;
39188;SDS011;24915;50.858;4.376;2023-07-02T00:12:08;44.42;;;20.55;;
39188;SDS011;24915;50.858;4.376;2023-07-02T00:14:35;46.70;;;21.88;;
39188;SDS011;24915;50.858;4.376;2023-07-02T00:17:01;44.05;;;21.20;;
39188;SDS011;24915;50.858;4.376;2023-07-02T00:19:27;49.63;;;21.75;;
39188;SDS011;24915;50.858;4.376;2023-07-02T00:21:53;43.42;;;21.35;;
39188;SDS011;24915;50.858;4.376;2023-07-02T00:24:19;44.47;;;21.05;;
39188;SDS011;24915;50.858;4.376;2023-07-02T00:26:45;48.33;;;22.63;;
39188;SDS011;24915;50.858;4.376;2023-07-02T00:29:11;46.22;;;21.00;;
39188;SDS011;24915;50.858;4.376;2023-07-02T00:31:37;48.20;;;22.45;;
39188;SDS011;24915;50.858;4.376;2023-07-02T00:34:03;48.95;;;22.48;;
39188;SDS011;24915;50.858;4.376;2023-07-02T00:36:29;47.20;;;22.27;;
39188;SDS011;24915;50.858;4.376;2023-07-02T00:38:56;48.42;;;21.60;;
39188;SDS011;24915;50.858;4.376;2023-07-02T00:41:23;55.83;;;23.27;;
39188;SDS011;24915;50.858;4.376;2023-07-02T00:43:49;50.83;;;23.05;;
39188;SDS011;24915;50.858;4.376;2023-07-02T00:46:19;48.05;;;22.17;;
39188;SDS011;24915;50.858;4.376;2023-07-02T00:48:46;48.10;;;23.23;;
39188;SDS011;24915;50.858;4.376;2023-07-02T00:51:14;46.97;;;22.70;;
39188;SDS011;24915;50.858;4.376;2023-07-02T00:53:40;57.97;;;24.00;;
39188;SDS011;24915;50.858;4.376;2023-07-02T00:56:06;57.50;;;24.27;;
39188;SDS011;24915;50.858;4.376;2023-07-02T00:58:33;50.53;;;23.25;;
39188;SDS011;24915;50.858;4.376;2023-07-02T01:01:00;61.17;;;24.80;;
39188;SDS011;24915;50.858;4.376;2023-07-02T01:03:26;55.10;;;24.75;;
39188;SDS011;24915;50.858;4.376;2023-07-02T01:05:54;48.70;;;23.45;;
39188;SDS011;24915;50.858;4.376;2023-07-02T01:08:19;52.90;;;24.48;;
39188;SDS011;24915;50.858;4.376;2023-07-02T01:10:45;54.47;;;24.35;;
39188;SDS011;24915;50.858;4.376;2023-07-02T01:13:14;57.65;;;24.60;;
39188;SDS011;24915;50.858;4.376;2023-07-02T01:15:42;58.67;;;24.73;;
39188;SDS011;24915;50.858;4.376;2023-07-02T01:18:10;52.47;;;24.95;;
39188;SDS011;24915;50.858;4.376;2023-07-02T01:20:36;52.22;;;24.67;;
39188;SDS011;24915;50.858;4.376;2023-07-02T01:23:02;56.80;;;25.17;;
39188;SDS011;24915;50.858;4.376;2023-07-02T01:25:29;58.33;;;25.38;;
39188;SDS011;24915;50.858;4.376;2023-07-02T01:27:55;59.47;;;26.50;;
39188;SDS011;24915;50.858;4.376;2023-07-02T01:30:23;62.67;;;25.85;;
39188;SDS011;24915;50.858;4.376;2023-07-02T01:32:51;53.63;;;26.40;;
39188;SDS011;24915;50.858;4.376;2023-07-02T01:35:17;51.30;;;26.73;;
39188;SDS011;24915;50.858;4.376;2023-07-02T01:37:43;64.03;;;27.38;;
39188;SDS011;24915;50.858;4.376;2023-07-02T01:40:09;60.60;;;25.92;;
39188;SDS011;24915;50.858;4.376;2023-07-02T01:42:35;64.43;;;27.27;;
39188;SDS011;24915;50.858;4.376;2023-07-02T01:45:02;60.55;;;27.13;;
39188;SDS011;24915;50.858;4.376;2023-07-02T01:47:28;56.33;;;25.42;;
39188;SDS011;24915;50.858;4.376;2023-07-02T01:49:54;55.50;;;26.73;;
39188;SDS011;24915;50.858;4.376;2023-07-02T01:52:20;62.92;;;27.65;;
39188;SDS011;24915;50.858;4.376;2023-07-02T01:54:46;69.30;;;27.77;;
39188;SDS011;24915;50.858;4.376;2023-07-02T01:57:12;63.00;;;26.88;;
39188;SDS011;24915;50.858;4.376;2023-07-02T01:59:38;58.92;;;26.98;;
39188;SDS011;24915;50.858;4.376;2023-07-02T02:02:04;62.13;;;27.45;;
39188;SDS011;24915;50.858;4.376;2023-07-02T02:04:30;69.57;;;28.27;;
39188;SDS011;24915;50.858;4.376;2023-07-02T02:06:56;61.90;;;26.75;;
39188;SDS011;24915;50.858;4.376;2023-07-02T02:09:22;63.38;;;28.45;;
39188;SDS011;24915;50.858;4.376;2023-07-02T02:11:49;56.90;;;27.33;;
39188;SDS011;24915;50.858;4.376;2023-07-02T02:14:16;69.28;;;28.65;;
39188;SDS011;24915;50.858;4.376;2023-07-02T02:16:42;66.97;;;27.30;;
39188;SDS011;24915;50.858;4.376;2023-07-02T02:19:10;62.60;;;27.95;;
39188;SDS011;24915;50.858;4.376;2023-07-02T02:21:37;64.15;;;28.90;;
39188;SDS011;24915;50.858;4.376;2023-07-02T02:24:03;66.70;;;27.95;;
39188;SDS011;24915;50.858;4.376;2023-07-02T02:26:31;71.68;;;29.92;;
39188;SDS011;24915;50.858;4.376;2023-07-02T02:28:57;64.90;;;27.73;;
39188;SDS011;24915;50.858;4.376;2023-07-02T02:31:23;64.97;;;28.23;;
39188;SDS011;24915;50.858;4.376;2023-07-02T02:33:49;65.43;;;27.55;;
39188;SDS011;24915;50.858;4.376;2023-07-02T02:36:15;63.60;;;28.60;;
39188;SDS011;24915;50.858;4.376;2023-07-02T02:38:42;70.07;;;28.58;;
39188;SDS011;24915;50.858;4.376;2023-07-02T02:41:08;71.03;;;30.65;;
39188;SDS011;24915;50.858;4.376;2023-07-02T02:43:34;68.65;;;29.25;;
39188;SDS011;24915;50.858;4.376;2023-07-02T02:46:00;71.80;;;30.02;;
39188;SDS011;24915;50.858;4.376;2023-07-02T02:48:26;64.30;;;30.15;;
39188;SDS011;24915;50.858;4.376;2023-07-02T02:50:52;66.18;;;29.25;;
39188;SDS011;24915;50.858;4.376;2023-07-02T02:53:18;66.00;;;30.00;;
39188;SDS011;24915;50.858;4.376;2023-07-02T02:55:44;65.30;;;29.27;;
39188;SDS011;24915;50.858;4.376;2023-07-02T02:58:10;77.43;;;31.58;;
39188;SDS011;24915;50.858;4.376;2023-07-02T03:00:36;71.97;;;30.60;;
39188;SDS011;24915;50.858;4.376;2023-07-02T03:03:03;72.43;;;30.58;;
39188;SDS011;24915;50.858;4.376;2023-07-02T03:05:29;110.47;;;32.42;;
39188;SDS011;24915;50.858;4.376;2023-07-02T03:07:55;83.97;;;31.17;;
39188;SDS011;24915;50.858;4.376;2023-07-02T03:10:21;76.38;;;30.88;;
39188;SDS011;24915;50.858;4.376;2023-07-02T03:12:47;76.72;;;30.48;;
39188;SDS011;24915;50.858;4.376;2023-07-02T03:15:13;81.82;;;31.35;;
39188;SDS011;24915;50.858;4.376;2023-07-02T03:17:39;79.13;;;31.23;;
39188;SDS011;24915;50.858;4.376;2023-07-02T03:20:06;75.03;;;32.35;;
39188;SDS011;24915;50.858;4.376;2023-07-02T03:22:35;78.72;;;31.08;;
39188;SDS011;24915;50.858;4.376;2023-07-02T03:25:01;76.05;;;31.27;;
39188;SDS011;24915;50.858;4.376;2023-07-02T03:27:27;81.95;;;32.30;;
39188;SDS011;24915;50.858;4.376;2023-07-02T03:29:53;74.00;;;30.45;;
39188;SDS011;24915;50.858;4.376;2023-07-02T03:32:19;78.05;;;33.60;;
39188;SDS011;24915;50.858;4.376;2023-07-02T03:34:46;84.55;;;32.88;;
39188;SDS011;24915;50.858;4.376;2023-07-02T03:37:11;77.15;;;32.55;;
39188;SDS011;24915;50.858;4.376;2023-07-02T03:39:37;86.30;;;33.85;;
39188;SDS011;24915;50.858;4.376;2023-07-02T03:42:05;79.15;;;33.08;;
39188;SDS011;24915;50.858;4.376;2023-07-02T03:44:31;90.63;;;33.80;;
39188;SDS011;24915;50.858;4.376;2023-07-02T03:46:57;84.53;;;33.83;;
39188;SDS011;24915;50.858;4.376;2023-07-02T03:49:23;86.15;;;32.40;;
39188;SDS011;24915;50.858;4.376;2023-07-02T03:51:49;85.82;;;34.25;;
39188;SDS011;24915;50.858;4.376;2023-07-02T03:54:15;79.72;;;32.55;;
39188;SDS011;24915;50.858;4.376;2023-07-02T03:56:41;91.80;;;34.25;;
39188;SDS011;24915;50.858;4.376;2023-07-02T03:59:07;90.63;;;34.08;;
39188;SDS011;24915;50.858;4.376;2023-07-02T04:01:33;88.32;;;35.00;;
39188;SDS011;24915;50.858;4.376;2023-07-02T04:03:59;89.18;;;35.08;;
39188;SDS011;24915;50.858;4.376;2023-07-02T04:06:25;95.75;;;35.72;;
39188;SDS011;24915;50.858;4.376;2023-07-02T04:08:51;93.32;;;35.67;;
39188;SDS011;24915;50.858;4.376;2023-07-02T04:11:17;92.65;;;35.38;;
39188;SDS011;24915;50.858;4.376;2023-07-02T04:13:43;88.97;;;35.25;;
39188;SDS011;24915;50.858;4.376;2023-07-02T04:16:09;89.75;;;35.03;;
39188;SDS011;24915;50.858;4.376;2023-07-02T04:18:35;91.65;;;35.85;;
39188;SDS011;24915;50.858;4.376;2023-07-02T04:21:02;91.65;;;36.00;;
39188;SDS011;24915;50.858;4.376;2023-07-02T04:23:28;96.05;;;36.47;;
39188;SDS011;24915;50.858;4.376;2023-07-02T04:25:54;93.20;;;35.15;;
39188;SDS011;24915;50.858;4.376;2023-07-02T04:28:20;94.60;;;35.40;;
39188;SDS011;24915;50.858;4.376;2023-07-02T04:30:46;93.60;;;36.30;;
39188;SDS011;24915;50.858;4.376;2023-07-02T04:33:14;99.57;;;37.72;;
39188;SDS011;24915;50.858;4.376;2023-07-02T04:35:40;93.22;;;38.13;;
39188;SDS011;24915;50.858;4.376;2023-07-02T04:38:07;97.13;;;37.38;;
39188;SDS011;24915;50.858;4.376;2023-07-02T04:40:33;91.15;;;37.40;;
39188;SDS011;24915;50.858;4.376;2023-07-02T04:42:59;92.05;;;35.58;;
39188;SDS011;24915;50.858;4.376;2023-07-02T04:45:26;95.45;;;38.15;;
39188;SDS011;24915;50.858;4.376;2023-07-02T04:47:57;100.05;;;36.72;;
39188;SDS011;24915;50.858;4.376;2023-07-02T04:50:25;106.97;;;35.63;;
39188;SDS011;24915;50.858;4.376;2023-07-02T04:52:52;83.75;;;35.47;;
39188;SDS011;24915;50.858;4.376;2023-07-02T04:55:18;93.22;;;37.80;;
39188;SDS011;24915;50.858;4.376;2023-07-02T04:57:44;112.32;;;38.70;;
39188;SDS011;24915;50.858;4.376;2023-07-02T05:00:10;95.88;;;38.00;;
39188;SDS011;24915;50.858;4.376;2023-07-02T05:02:37;94.13;;;36.42;;
39188;SDS011;24915;50.858;4.376;2023-07-02T05:05:03;95.72;;;36.50;;
39188;SDS011;24915;50.858;4.376;2023-07-02T05:07:29;104.28;;;38.50;;
39188;SDS011;24915;50.858;4.376;2023-07-02T05:09:55;103.38;;;38.40;;
39188;SDS011;24915;50.858;4.376;2023-07-02T05:12:21;90.18;;;36.35;;
39188;SDS011;24915;50.858;4.376;2023-07-02T05:14:47;103.18;;;37.63;;
39188;SDS011;24915;50.858;4.376;2023-07-02T05:17:13;97.88;;;37.35;;
39188;SDS011;24915;50.858;4.376;2023-07-02T05:19:39;92.70;;;37.60;;
39188;SDS011;24915;50.858;4.376;2023-07-02T05:22:06;105.43;;;37.92;;
39188;SDS011;24915;50.858;4.376;2023-07-02T05:24:32;92.30;;;36.80;;
39188;SDS011;24915;50.858;4.376;2023-07-02T05:26:58;93.47;;;37.35;;
39188;SDS011;24915;50.858;4.376;2023-07-02T05:29:24;114.68;;;39.97;;
39188;SDS011;24915;50.858;4.376;2023-07-02T05:31:50;95.05;;;35.65;;
39188;SDS011;24915;50.858;4.376;2023-07-02T05:34:16;98.05;;;37.15;;
39188;SDS011;24915;50.858;4.376;2023-07-02T05:36:42;97.95;;;36.65;;
39188;SDS011;24915;50.858;4.376;2023-07-02T05:39:08;91.28;;;37.83;;
39188;SDS011;24915;50.858;4.376;2023-07-02T05:41:34;90.85;;;35.75;;
39188;SDS011;24915;50.858;4.376;2023-07-02T05:44:00;92.15;;;36.47;;
39188;SDS011;24915;50.858;4.376;2023-07-02T05:46:26;98.25;;;36.95;;
39188;SDS011;24915;50.858;4.376;2023-07-02T05:48:53;96.93;;;36.40;;
39188;SDS011;24915;50.858;4.376;2023-07-02T05:51:23;89.95;;;35.60;;
39188;SDS011;24915;50.858;4.376;2023-07-02T05:53:49;86.18;;;36.08;;
39188;SDS011;24915;50.858;4.376;2023-07-02T05:56:16;97.57;;;37.33;;
39188;SDS011;24915;50.858;4.376;2023-07-02T05:58:42;85.20;;;34.47;;
39188;SDS011;24915;50.858;4.376;2023-07-02T06:01:08;94.05;;;35.70;;
39188;SDS011;24915;50.858;4.376;2023-07-02T06:03:34;84.40;;;36.38;;
39188;SDS011;24915;50.858;4.376;2023-07-02T06:06:00;95.45;;;34.97;;
39188;SDS011;24915;50.858;4.376;2023-07-02T06:08:26;90.65;;;37.05;;
39188;SDS011;24915;50.858;4.376;2023-07-02T06:10:52;85.57;;;35.50;;
39188;SDS011;24915;50.858;4.376;2023-07-02T06:13:18;79.05;;;33.60;;
39188;SDS011;24915;50.858;4.376;2023-07-02T06:15:44;80.10;;;32.90;;
39188;SDS011;24915;50.858;4.376;2023-07-02T06:18:12;83.38;;;34.50;;
39188;SDS011;24915;50.858;4.376;2023-07-02T06:20:38;76.80;;;33.03;;
39188;SDS011;24915;50.858;4.376;2023-07-02T06:23:04;80.32;;;33.03;;
39188;SDS011;24915;50.858;4.376;2023-07-02T06:25:30;82.18;;;32.83;;
39188;SDS011;24915;50.858;4.376;2023-07-02T06:27:56;70.00;;;29.55;;
39188;SDS011;24915;50.858;4.376;2023-07-02T06:30:23;73.35;;;29.73;;
39188;SDS011;24915;50.858;4.376;2023-07-02T06:32:49;73.40;;;29.15;;
39188;SDS011;24915;50.858;4.376;2023-07-02T06:35:15;65.85;;;29.00;;
39188;SDS011;24915;50.858;4.376;2023-07-02T06:37:42;73.85;;;30.38;;
39188;SDS011;24915;50.858;4.376;2023-07-02T06:40:08;62.88;;;27.50;;
39188;SDS011;24915;50.858;4.376;2023-07-02T06:42:34;70.53;;;28.17;;
39188;SDS011;24915;50.858;4.376;2023-07-02T06:45:03;67.63;;;27.98;;
39188;SDS011;24915;50.858;4.376;2023-07-02T06:47:29;64.70;;;26.95;;
39188;SDS011;24915;50.858;4.376;2023-07-02T06:49:55;58.53;;;25.70;;
39188;SDS011;24915;50.858;4.376;2023-07-02T06:52:21;58.40;;;25.52;;
39188;SDS011;24915;50.858;4.376;2023-07-02T06:54:47;49.60;;;23.77;;
39188;SDS011;24915;50.858;4.376;2023-07-02T06:57:13;56.20;;;24.83;;
39188;SDS011;24915;50.858;4.376;2023-07-02T06:59:39;63.53;;;24.63;;
39188;SDS011;24915;50.858;4.376;2023-07-02T07:02:06;54.30;;;23.60;;
39188;SDS011;24915;50.858;4.376;2023-07-02T07:04:32;51.33;;;23.15;;
39188;SDS011;24915;50.858;4.376;2023-07-02T07:06:59;58.63;;;23.75;;
39188;SDS011;24915;50.858;4.376;2023-07-02T07:09:28;52.65;;;21.33;;
39188;SDS011;24915;50.858;4.376;2023-07-02T07:11:54;53.42;;;22.00;;
39188;SDS011;24915;50.858;4.376;2023-07-02T07:14:20;48.47;;;21.27;;
39188;SDS011;24915;50.858;4.376;2023-07-02T07:16:46;44.97;;;20.27;;
39188;SDS011;24915;50.858;4.376;2023-07-02T07:19:12;47.05;;;19.60;;
39188;SDS011;24915;50.858;4.376;2023-07-02T07:21:38;50.10;;;18.58;;
39188;SDS011;24915;50.858;4.376;2023-07-02T07:24:05;41.58;;;19.70;;
39188;SDS011;24915;50.858;4.376;2023-07-02T07:26:31;55.83;;;19.42;;
39188;SDS011;24915;50.858;4.376;2023-07-02T07:28:57;43.67;;;18.80;;
39188;SDS011;24915;50.858;4.376;2023-07-02T07:31:23;38.58;;;17.73;;
39188;SDS011;24915;50.858;4.376;2023-07-02T07:33:49;42.83;;;18.17;;
39188;SDS011;24915;50.858;4.376;2023-07-02T07:36:16;40.08;;;19.08;;
39188;SDS011;24915;50.858;4.376;2023-07-02T07:38:45;36.65;;;17.65;;
39188;SDS011;24915;50.858;4.376;2023-07-02T07:41:11;38.08;;;16.77;;
39188;SDS011;24915;50.858;4.376;2023-07-02T07:43:37;39.60;;;16.10;;
39188;SDS011;24915;50.858;4.376;2023-07-02T07:46:03;35.90;;;15.32;;
39188;SDS011;24915;50.858;4.376;2023-07-02T07:48:29;37.05;;;16.33;;
39188;SDS011;24915;50.858;4.376;2023-07-02T07:50:55;38.08;;;15.65;;
39188;SDS011;24915;50.858;4.376;2023-07-02T07:53:21;37.83;;;14.60;;
39188;SDS011;24915;50.858;4.376;2023-07-02T07:55:47;37.63;;;15.20;;
39188;SDS011;24915;50.858;4.376;2023-07-02T07:58:13;36.10;;;13.77;;
39188;SDS011;24915;50.858;4.376;2023-07-02T08:00:39;33.17;;;15.65;;
39188;SDS011;24915;50.858;4.376;2023-07-02T08:03:05;31.05;;;14.98;;
39188;SDS011;24915;50.858;4.376;2023-07-02T08:05:31;32.22;;;14.32;;
39188;SDS011;24915;50.858;4.376;2023-07-02T08:07:57;31.55;;;13.45;;
39188;SDS011;24915;50.858;4.376;2023-07-02T08:10:24;34.15;;;14.40;;
39188;SDS011;24915;50.858;4.376;2023-07-02T08:12:50;29.05;;;13.70;;
39188;SDS011;24915;50.858;4.376;2023-07-02T08:15:17;29.55;;;14.32;;
39188;SDS011;24915;50.858;4.376;2023-07-02T08:17:43;33.00;;;13.98;;
39188;SDS011;24915;50.858;4.376;2023-07-02T08:20:09;33.03;;;14.07;;
39188;SDS011;24915;50.858;4.376;2023-07-02T08:22:37;35.40;;;14.55;;
39188;SDS011;24915;50.858;4.376;2023-07-02T08:25:03;40.08;;;15.52;;
39188;SDS011;24915;50.858;4.376;2023-07-02T08:27:29;35.95;;;15.48;;
39188;SDS011;24915;50.858;4.376;2023-07-02T08:29:55;33.47;;;15.35;;
39188;SDS011;24915;50.858;4.376;2023-07-02T08:32:21;32.00;;;15.13;;
39188;SDS011;24915;50.858;4.376;2023-07-02T08:34:47;32.13;;;14.10;;
39188;SDS011;24915;50.858;4.376;2023-07-02T08:37:15;34.35;;;14.00;;
39188;SDS011;24915;50.858;4.376;2023-07-02T08:39:41;37.40;;;14.13;;
39188;SDS011;24915;50.858;4.376;2023-07-02T08:42:07;34.38;;;14.50;;
39188;SDS011;24915;50.858;4.376;2023-07-02T08:44:33;37.20;;;14.68;;
39188;SDS011;24915;50.858;4.376;2023-07-02T08:47:00;35.53;;;15.02;;
39188;SDS011;24915;50.858;4.376;2023-07-02T08:49:27;34.90;;;15.07;;
39188;SDS011;24915;50.858;4.376;2023-07-02T08:51:53;34.38;;;15.80;;
39188;SDS011;24915;50.858;4.376;2023-07-02T08:54:19;36.35;;;15.65;;
39188;SDS011;24915;50.858;4.376;2023-07-02T08:56:45;35.95;;;15.68;;
39188;SDS011;24915;50.858;4.376;2023-07-02T08:59:12;34.30;;;15.65;;
39188;SDS011;24915;50.858;4.376;2023-07-02T09:01:44;38.17;;;15.98;;
39188;SDS011;24915;50.858;4.376;2023-07-02T09:06:43;34.10;;;15.85;;
39188;SDS011;24915;50.858;4.376;2023-07-02T09:09:09;33.83;;;15.25;;
39188;SDS011;24915;50.858;4.376;2023-07-02T09:11:35;35.08;;;15.65;;
39188;SDS011;24915;50.858;4.376;2023-07-02T09:14:12;42.35;;;16.80;;
39188;SDS011;24915;50.858;4.376;2023-07-02T09:16:38;32.72;;;14.07;;
39188;SDS011;24915;50.858;4.376;2023-07-02T09:19:07;34.50;;;14.60;;
39188;SDS011;24915;50.858;4.376;2023-07-02T09:21:48;30.20;;;14.63;;
39188;SDS011;24915;50.858;4.376;2023-07-02T09:24:18;34.72;;;14.60;;
39188;SDS011;24915;50.858;4.376;2023-07-02T09:26:45;42.67;;;14.73;;
39188;SDS011;24915;50.858;4.376;2023-07-02T09:29:12;31.40;;;14.93;;
39188;SDS011;24915;50.858;4.376;2023-07-02T09:31:45;33.35;;;15.27;;
39188;SDS011;24915;50.858;4.376;2023-07-02T09:34:12;32.38;;;15.63;;
39188;SDS011;24915;50.858;4.376;2023-07-02T09:36:38;36.35;;;15.65;;
39188;SDS011;24915;50.858;4.376;2023-07-02T09:39:14;37.90;;;15.27;;
39188;SDS011;24915;50.858;4.376;2023-07-02T09:41:43;38.92;;;17.00;;
39188;SDS011;24915;50.858;4.376;2023-07-02T09:44:10;34.20;;;14.90;;
39188;SDS011;24915;50.858;4.376;2023-07-02T09:46:37;38.75;;;14.68;;
39188;SDS011;24915;50.858;4.376;2023-07-02T09:49:09;33.83;;;15.05;;
39188;SDS011;24915;50.858;4.376;2023-07-02T09:51:37;32.75;;;14.63;;
39188;SDS011;24915;50.858;4.376;2023-07-02T09:54:03;34.83;;;13.43;;
39188;SDS011;24915;50.858;4.376;2023-07-02T09:56:29;30.88;;;13.45;;
39188;SDS011;24915;50.858;4.376;2023-07-02T09:58:55;32.00;;;13.75;;
39188;SDS011;24915;50.858;4.376;2023-07-02T10:01:21;37.25;;;14.60;;
39188;SDS011;24915;50.858;4.376;2023-07-02T10:03:47;29.05;;;12.65;;
39188;SDS011;24915;50.858;4.376;2023-07-02T10:06:13;32.97;;;14.00;;
39188;SDS011;24915;50.858;4.376;2023-07-02T10:08:39;41.25;;;14.38;;
39188;SDS011;24915;50.858;4.376;2023-07-02T10:11:12;40.83;;;15.02;;
39188;SDS011;24915;50.858;4.376;2023-07-02T10:13:38;32.70;;;13.75;;
39188;SDS011;24915;50.858;4.376;2023-07-02T10:16:04;30.52;;;14.10;;
39188;SDS011;24915;50.858;4.376;2023-07-02T10:18:31;33.50;;;12.75;;
39188;SDS011;24915;50.858;4.376;2023-07-02T10:20:57;35.50;;;13.55;;
39188;SDS011;24915;50.858;4.376;2023-07-02T10:23:32;29.67;;;12.75;;
39188;SDS011;24915;50.858;4.376;2023-07-02T10:26:09;33.88;;;13.25;;
39188;SDS011;24915;50.858;4.376;2023-07-02T10:28:35;32.25;;;12.88;;
39188;SDS011;24915;50.858;4.376;2023-07-02T10:31:01;32.25;;;13.50;;
39188;SDS011;24915;50.858;4.376;2023-07-02T10:33:27;28.13;;;13.60;;
39188;SDS011;24915;50.858;4.376;2023-07-02T10:35:53;32.05;;;13.75;;
39188;SDS011;24915;50.858;4.376;2023-07-02T10:40:45;32.72;;;13.05;;
39188;SDS011;24915;50.858;4.376;2023-07-02T10:43:11;38.28;;;14.82;;
39188;SDS011;24915;50.858;4.376;2023-07-02T10:45:37;39.05;;;14.98;;
39188;SDS011;24915;50.858;4.376;2023-07-02T10:48:04;30.45;;;13.55;;
39188;SDS011;24915;50.858;4.376;2023-07-02T10:50:31;35.03;;;13.63;;
39188;SDS011;24915;50.858;4.376;2023-07-02T10:52:57;28.60;;;12.70;;
39188;SDS011;24915;50.858;4.376;2023-07-02T10:55:24;65.32;;;18.38;;
39188;SDS011;24915;50.858;4.376;2023-07-02T10:57:50;50.50;;;14.98;;
39188;SDS011;24915;50.858;4.376;2023-07-02T11:00:16;49.20;;;15.02;;
39188;SDS011;24915;50.858;4.376;2023-07-02T11:02:43;28.30;;;13.32;;
39188;SDS011;24915;50.858;4.376;2023-07-02T11:05:09;31.67;;;12.82;;
39188;SDS011;24915;50.858;4.376;2023-07-02T11:07:39;34.92;;;13.85;;
39188;SDS011;24915;50.858;4.376;2023-07-02T11:10:06;29.13;;;12.65;;
39188;SDS011;24915;50.858;4.376;2023-07-02T11:12:32;30.08;;;12.43;;
39188;SDS011;24915;50.858;4.376;2023-07-02T11:15:14;28.08;;;12.48;;
39188;SDS011;24915;50.858;4.376;2023-07-02T11:17:40;30.85;;;13.00;;
39188;SDS011;24915;50.858;4.376;2023-07-02T11:20:13;28.10;;;12.85;;
39188;SDS011;24915;50.858;4.376;2023-07-02T11:27:35;30.35;;;12.52;;
39188;SDS011;24915;50.858;4.376;2023-07-02T11:30:01;32.22;;;13.88;;
39188;SDS011;24915;50.858;4.376;2023-07-02T11:32:27;32.75;;;12.32;;
39188;SDS011;24915;50.858;4.376;2023-07-02T11:34:54;25.33;;;11.73;;
39188;SDS011;24915;50.858;4.376;2023-07-02T11:37:21;25.27;;;11.90;;
39188;SDS011;24915;50.858;4.376;2023-07-02T11:39:47;29.52;;;13.65;;
39188;SDS011;24915;50.858;4.376;2023-07-02T11:42:13;30.15;;;12.93;;
39188;SDS011;24915;50.858;4.376;2023-07-02T11:44:40;54.13;;;16.48;;
39188;SDS011;24915;50.858;4.376;2023-07-02T11:47:06;23.27;;;12.00;;
39188;SDS011;24915;50.858;4.376;2023-07-02T11:49:32;28.27;;;12.00;;
39188;SDS011;24915;50.858;4.376;2023-07-02T11:51:58;31.60;;;13.18;;
39188;SDS011;24915;50.858;4.376;2023-07-02T11:54:24;32.13;;;13.52;;
39188;SDS011;24915;50.858;4.376;2023-07-02T11:56:50;30.85;;;14.35;;
39188;SDS011;24915;50.858;4.376;2023-07-02T11:59:16;29.38;;;13.80;;
39188;SDS011;24915;50.858;4.376;2023-07-02T12:01:43;29.85;;;13.52;;
39188;SDS011;24915;50.858;4.376;2023-07-02T12:04:10;28.35;;;12.80;;
39188;SDS011;24915;50.858;4.376;2023-07-02T12:06:37;34.03;;;13.20;;
39188;SDS011;24915;50.858;4.376;2023-07-02T12:09:03;23.05;;;11.77;;
39188;SDS011;24915;50.858;4.376;2023-07-02T12:11:29;35.13;;;12.27;;
39188;SDS011;24915;50.858;4.376;2023-07-02T12:13:55;28.70;;;12.35;;
39188;SDS011;24915;50.858;4.376;2023-07-02T12:16:21;25.15;;;11.25;;
39188;SDS011;24915;50.858;4.376;2023-07-02T12:18:47;25.50;;;11.20;;
39188;SDS011;24915;50.858;4.376;2023-07-02T12:21:13;27.50;;;10.93;;
39188;SDS011;24915;50.858;4.376;2023-07-02T12:23:39;26.17;;;12.52;;
39188;SDS011;24915;50.858;4.376;2023-07-02T12:26:05;28.10;;;12.15;;
39188;SDS011;24915;50.858;4.376;2023-07-02T12:28:31;26.83;;;11.35;;
39188;SDS011;24915;50.858;4.376;2023-07-02T12:30:57;25.35;;;12.27;;
39188;SDS011;24915;50.858;4.376;2023-07-02T12:33:23;27.73;;;12.57;;
39188;SDS011;24915;50.858;4.376;2023-07-02T12:35:49;31.10;;;12.40;;
39188;SDS011;24915;50.858;4.376;2023-07-02T12:38:15;22.52;;;11.52;;
39188;SDS011;24915;50.858;4.376;2023-07-02T12:40:41;23.20;;;11.73;;
39188;SDS011;24915;50.858;4.376;2023-07-02T12:43:07;27.83;;;12.52;;
39188;SDS011;24915;50.858;4.376;2023-07-02T12:45:33;24.98;;;11.88;;
39188;SDS011;24915;50.858;4.376;2023-07-02T12:47:59;25.50;;;11.50;;
39188;SDS011;24915;50.858;4.376;2023-07-02T12:50:25;20.50;;;10.38;;
39188;SDS011;24915;50.858;4.376;2023-07-02T12:52:51;26.65;;;11.27;;
39188;SDS011;24915;50.858;4.376;2023-07-02T12:55:17;21.70;;;11.68;;
39188;SDS011;24915;50.858;4.376;2023-07-02T12:57:44;24.35;;;12.02;;
39188;SDS011;24915;50.858;4.376;2023-07-02T13:00:10;25.13;;;11.25;;
39188;SDS011;24915;50.858;4.376;2023-07-02T13:02:36;21.48;;;9.85;;
39188;SDS011;24915;50.858;4.376;2023-07-02T13:05:02;24.10;;;11.27;;
39188;SDS011;24915;50.858;4.376;2023-07-02T13:07:28;37.75;;;13.55;;
39188;SDS011;24915;50.858;4.376;2023-07-02T13:09:55;23.45;;;11.40;;
39188;SDS011;24915;50.858;4.376;2023-07-02T13:12:21;22.25;;;10.48;;
39188;SDS011;24915;50.858;4.376;2023-07-02T13:14:47;21.63;;;10.23;;
39188;SDS011;24915;50.858;4.376;2023-07-02T13:17:13;20.02;;;11.18;;
39188;SDS011;24915;50.858;4.376;2023-07-02T13:19:39;24.83;;;11.73;;
39188;SDS011;24915;50.858;4.376;2023-07-02T13:22:05;28.33;;;12.10;;
39188;SDS011;24915;50.858;4.376;2023-07-02T13:24:34;29.45;;;13.43;;
39188;SDS011;24915;50.858;4.376;2023-07-02T13:27:04;26.15;;;13.27;;
39188;SDS011;24915;50.858;4.376;2023-07-02T13:29:30;25.58;;;12.40;;
39188;SDS011;24915;50.858;4.376;2023-07-02T13:31:57;18.60;;;10.60;;
39188;SDS011;24915;50.858;4.376;2023-07-02T13:34:23;29.90;;;13.20;;
39188;SDS011;24915;50.858;4.376;2023-07-02T13:36:49;26.45;;;12.18;;
39188;SDS011;24915;50.858;4.376;2023-07-02T13:39:15;18.55;;;10.98;;
39188;SDS011;24915;50.858;4.376;2023-07-02T13:41:41;21.48;;;10.68;;
39188;SDS011;24915;50.858;4.376;2023-07-02T13:44:07;23.80;;;11.93;;
39188;SDS011;24915;50.858;4.376;2023-07-02T13:46:33;24.80;;;10.32;;
39188;SDS011;24915;50.858;4.376;2023-07-02T13:48:59;23.60;;;10.07;;
39188;SDS011;24915;50.858;4.376;2023-07-02T13:51:25;21.38;;;9.65;;
39188;SDS011;24915;50.858;4.376;2023-07-02T13:53:51;21.52;;;10.48;;
39188;SDS011;24915;50.858;4.376;2023-07-02T13:56:17;24.70;;;10.20;;
39188;SDS011;24915;50.858;4.376;2023-07-02T14:01:22;25.35;;;12.13;;
39188;SDS011;24915;50.858;4.376;2023-07-02T14:03:48;27.30;;;13.05;;
39188;SDS011;24915;50.858;4.376;2023-07-02T14:06:14;30.83;;;14.32;;
39188;SDS011;24915;50.858;4.376;2023-07-02T14:08:40;27.50;;;12.27;;
39188;SDS011;24915;50.858;4.376;2023-07-02T14:11:06;20.95;;;10.63;;
39188;SDS011;24915;50.858;4.376;2023-07-02T14:13:32;20.00;;;10.05;;
39188;SDS011;24915;50.858;4.376;2023-07-02T14:15:58;20.52;;;10.20;;
39188;SDS011;24915;50.858;4.376;2023-07-02T14:18:25;24.90;;;11.85;;
39188;SDS011;24915;50.858;4.376;2023-07-02T14:20:51;30.33;;;12.43;;
39188;SDS011;24915;50.858;4.376;2023-07-02T14:23:17;22.38;;;10.20;;
39188;SDS011;24915;50.858;4.376;2023-07-02T14:25:43;20.13;;;10.32;;
39188;SDS011;24915;50.858;4.376;2023-07-02T14:28:09;19.00;;;9.93;;
39188;SDS011;24915;50.858;4.376;2023-07-02T14:30:35;23.08;;;10.00;;